sensor_id;sensor_type;location;lat;lon;timestamp;pressure;altitude;pressure_sealevel;temperature;humidity
57024;BME280;42916;54.346;18.562;2023-06-04T00:01:46;101114.18;;;6.58;74.35
57024;BME280;42916;54.346;18.562;2023-06-04T00:04:12;101113.52;;;6.57;74.44
57024;BME280;42916;54.346;18.562;2023-06-04T00:06:38;101111.77;;;6.53;74.46
57024;BME280;42916;54.346;18.562;2023-06-04T00:09:04;101110.54;;;6.50;74.60
57024;BME280;42916;54.346;18.562;2023-06-04T00:11:30;101110.21;;;6.46;74.80
57024;BME280;42916;54.346;18.562;2023-06-04T00:14:00;101108.22;;;6.41;74.72
57024;BME280;42916;54.346;18.562;2023-06-04T00:16:26;101107.56;;;6.35;74.92
57024;BME280;42916;54.346;18.562;2023-06-04T00:18:52;101105.61;;;6.32;75.17
57024;BME280;42916;54.346;18.562;2023-06-04T00:21:18;101107.58;;;6.30;75.47
57024;BME280;42916;54.346;18.562;2023-06-04T00:23:44;101106.23;;;6.29;75.76
57024;BME280;42916;54.346;18.562;2023-06-04T00:26:10;101108.16;;;6.29;75.91
57024;BME280;42916;54.346;18.562;2023-06-04T00:28:36;101104.62;;;6.29;76.01
57024;BME280;42916;54.346;18.562;2023-06-04T00:31:04;101106.33;;;6.28;75.97
57024;BME280;42916;54.346;18.562;2023-06-04T00:33:31;101107.27;;;6.27;76.13
57024;BME280;42916;54.346;18.562;2023-06-04T00:35:58;101107.08;;;6.23;76.28
57024;BME280;42916;54.346;18.562;2023-06-04T00:38:24;101110.20;;;6.17;76.30
57024;BME280;42916;54.346;18.562;2023-06-04T00:40:50;101111.38;;;6.14;76.39
57024;BME280;42916;54.346;18.562;2023-06-04T00:43:16;101112.98;;;6.12;76.54
57024;BME280;42916;54.346;18.562;2023-06-04T00:45:42;101111.41;;;6.12;76.50
57024;BME280;42916;54.346;18.562;2023-06-04T00:48:09;101112.40;;;6.11;76.67
57024;BME280;42916;54.346;18.562;2023-06-04T00:50:36;101106.71;;;6.07;76.80
57024;BME280;42916;54.346;18.562;2023-06-04T00:53:04;101102.60;;;6.02;76.99
57024;BME280;42916;54.346;18.562;2023-06-04T00:55:31;101102.69;;;5.99;77.18
57024;BME280;42916;54.346;18.562;2023-06-04T00:57:58;101099.89;;;5.97;77.10
57024;BME280;42916;54.346;18.562;2023-06-04T01:00:24;101105.66;;;5.96;77.15
57024;BME280;42916;54.346;18.562;2023-06-04T01:02:52;101101.11;;;5.94;77.23
57024;BME280;42916;54.346;18.562;2023-06-04T01:05:41;101099.45;;;5.95;77.26
57024;BME280;42916;54.346;18.562;2023-06-04T01:08:10;101097.36;;;5.96;77.56
57024;BME280;42916;54.346;18.562;2023-06-04T01:10:37;101095.77;;;5.94;77.61
57024;BME280;42916;54.346;18.562;2023-06-04T01:13:03;101089.85;;;5.91;77.88
57024;BME280;42916;54.346;18.562;2023-06-04T01:15:29;101089.98;;;5.89;77.96
57024;BME280;42916;54.346;18.562;2023-06-04T01:17:59;101084.91;;;5.87;78.08
57024;BME280;42916;54.346;18.562;2023-06-04T01:20:41;101088.23;;;5.85;77.93
57024;BME280;42916;54.346;18.562;2023-06-04T01:23:15;101082.81;;;5.81;78.00
57024;BME280;42916;54.346;18.562;2023-06-04T01:25:44;101085.58;;;5.80;78.11
57024;BME280;42916;54.346;18.562;2023-06-04T01:28:12;101086.55;;;5.81;78.17
57024;BME280;42916;54.346;18.562;2023-06-04T01:30:41;101086.81;;;5.82;78.12
57024;BME280;42916;54.346;18.562;2023-06-04T01:33:13;101085.86;;;5.82;78.20
57024;BME280;42916;54.346;18.562;2023-06-04T01:35:40;101084.28;;;5.79;78.50
57024;BME280;42916;54.346;18.562;2023-06-04T01:38:06;101084.65;;;5.78;78.57
57024;BME280;42916;54.346;18.562;2023-06-04T01:40:33;101081.73;;;5.77;78.52
57024;BME280;42916;54.346;18.562;2023-06-04T01:42:59;101079.34;;;5.76;78.50
57024;BME280;42916;54.346;18.562;2023-06-04T01:45:27;101075.52;;;5.74;78.48
57024;BME280;42916;54.346;18.562;2023-06-04T01:47:54;101075.52;;;5.75;78.37
57024;BME280;42916;54.346;18.562;2023-06-04T01:50:20;101075.81;;;5.76;78.24
57024;BME280;42916;54.346;18.562;2023-06-04T01:52:46;101076.55;;;5.74;78.27
57024;BME280;42916;54.346;18.562;2023-06-04T01:55:15;101079.66;;;5.71;78.35
57024;BME280;42916;54.346;18.562;2023-06-04T01:57:42;101076.70;;;5.66;78.86
57024;BME280;42916;54.346;18.562;2023-06-04T02:00:10;101074.64;;;5.62;79.16
57024;BME280;42916;54.346;18.562;2023-06-04T02:02:42;101073.17;;;5.60;79.63
57024;BME280;42916;54.346;18.562;2023-06-04T02:05:09;101076.20;;;5.59;79.67
57024;BME280;42916;54.346;18.562;2023-06-04T02:07:41;101074.41;;;5.60;79.55
57024;BME280;42916;54.346;18.562;2023-06-04T02:10:12;101074.05;;;5.61;79.50
57024;BME280;42916;54.346;18.562;2023-06-04T02:12:40;101074.76;;;5.63;79.93
57024;BME280;42916;54.346;18.562;2023-06-04T02:15:10;101074.18;;;5.64;79.70
57024;BME280;42916;54.346;18.562;2023-06-04T02:17:36;101074.92;;;5.64;80.04
57024;BME280;42916;54.346;18.562;2023-06-04T02:20:06;101075.01;;;5.65;80.16
57024;BME280;42916;54.346;18.562;2023-06-04T02:22:35;101068.31;;;5.67;80.05
57024;BME280;42916;54.346;18.562;2023-06-04T02:25:01;101069.57;;;5.67;80.31
57024;BME280;42916;54.346;18.562;2023-06-04T02:27:28;101072.27;;;5.67;80.27
57024;BME280;42916;54.346;18.562;2023-06-04T02:29:54;101071.30;;;5.67;80.20
57024;BME280;42916;54.346;18.562;2023-06-04T02:32:21;101069.77;;;5.68;80.35
57024;BME280;42916;54.346;18.562;2023-06-04T02:34:47;101066.96;;;5.69;80.31
57024;BME280;42916;54.346;18.562;2023-06-04T02:37:14;101066.54;;;5.69;80.31
57024;BME280;42916;54.346;18.562;2023-06-04T02:39:41;101068.08;;;5.69;80.52
57024;BME280;42916;54.346;18.562;2023-06-04T02:42:07;101068.41;;;5.67;80.54
57024;BME280;42916;54.346;18.562;2023-06-04T02:44:33;101068.98;;;5.67;80.40
57024;BME280;42916;54.346;18.562;2023-06-04T02:46:59;101072.68;;;5.68;80.28
57024;BME280;42916;54.346;18.562;2023-06-04T02:49:25;101068.70;;;5.69;80.00
57024;BME280;42916;54.346;18.562;2023-06-04T02:51:52;101073.27;;;5.70;79.96
57024;BME280;42916;54.346;18.562;2023-06-04T02:54:18;101070.81;;;5.72;79.79
57024;BME280;42916;54.346;18.562;2023-06-04T02:56:44;101072.27;;;5.75;79.59
57024;BME280;42916;54.346;18.562;2023-06-04T02:59:11;101072.86;;;5.79;79.50
57024;BME280;42916;54.346;18.562;2023-06-04T03:01:37;101071.73;;;5.82;79.39
57024;BME280;42916;54.346;18.562;2023-06-04T03:04:03;101071.06;;;5.84;79.48
57024;BME280;42916;54.346;18.562;2023-06-04T03:06:31;101077.77;;;5.86;79.40
57024;BME280;42916;54.346;18.562;2023-06-04T03:09:00;101077.61;;;5.89;79.53
57024;BME280;42916;54.346;18.562;2023-06-04T03:11:27;101080.67;;;5.91;79.53
57024;BME280;42916;54.346;18.562;2023-06-04T03:13:53;101081.90;;;5.96;79.36
57024;BME280;42916;54.346;18.562;2023-06-04T03:16:20;101078.74;;;5.99;79.40
57024;BME280;42916;54.346;18.562;2023-06-04T03:18:46;101082.11;;;6.05;79.15
57024;BME280;42916;54.346;18.562;2023-06-04T03:21:13;101082.85;;;6.14;79.02
57024;BME280;42916;54.346;18.562;2023-06-04T03:23:40;101079.64;;;6.24;78.89
57024;BME280;42916;54.346;18.562;2023-06-04T03:26:06;101075.46;;;6.36;78.63
57024;BME280;42916;54.346;18.562;2023-06-04T03:28:33;101073.86;;;6.48;78.29
57024;BME280;42916;54.346;18.562;2023-06-04T03:31:02;101077.59;;;6.57;77.98
57024;BME280;42916;54.346;18.562;2023-06-04T03:33:28;101074.77;;;6.65;77.91
57024;BME280;42916;54.346;18.562;2023-06-04T03:35:55;101081.07;;;6.73;77.69
57024;BME280;42916;54.346;18.562;2023-06-04T03:38:25;101080.21;;;6.81;77.27
57024;BME280;42916;54.346;18.562;2023-06-04T03:40:51;101078.73;;;6.89;76.96
57024;BME280;42916;54.346;18.562;2023-06-04T03:43:21;101077.66;;;6.96;76.78
57024;BME280;42916;54.346;18.562;2023-06-04T03:45:50;101077.76;;;7.03;76.46
57024;BME280;42916;54.346;18.562;2023-06-04T03:48:16;101075.55;;;7.10;76.21
57024;BME280;42916;54.346;18.562;2023-06-04T03:50:43;101075.68;;;7.18;76.04
57024;BME280;42916;54.346;18.562;2023-06-04T03:53:12;101073.56;;;7.27;75.88
57024;BME280;42916;54.346;18.562;2023-06-04T03:55:38;101073.19;;;7.34;75.80
57024;BME280;42916;54.346;18.562;2023-06-04T03:58:07;101070.87;;;7.43;75.66
57024;BME280;42916;54.346;18.562;2023-06-04T04:00:35;101077.17;;;7.55;75.04
57024;BME280;42916;54.346;18.562;2023-06-04T04:03:02;101069.39;;;7.67;74.76
57024;BME280;42916;54.346;18.562;2023-06-04T04:05:31;101071.30;;;7.77;74.53
57024;BME280;42916;54.346;18.562;2023-06-04T04:07:57;101071.31;;;7.87;74.06
57024;BME280;42916;54.346;18.562;2023-06-04T04:10:26;101071.80;;;7.99;73.81
57024;BME280;42916;54.346;18.562;2023-06-04T04:12:52;101073.21;;;8.09;73.83
57024;BME280;42916;54.346;18.562;2023-06-04T04:15:20;101068.59;;;8.19;73.57
57024;BME280;42916;54.346;18.562;2023-06-04T04:17:47;101060.45;;;8.27;73.63
57024;BME280;42916;54.346;18.562;2023-06-04T04:20:14;101065.72;;;8.39;73.34
57024;BME280;42916;54.346;18.562;2023-06-04T04:22:46;101064.23;;;8.49;72.83
57024;BME280;42916;54.346;18.562;2023-06-04T04:25:12;101058.21;;;8.60;72.32
57024;BME280;42916;54.346;18.562;2023-06-04T04:27:38;101061.52;;;8.75;71.77
57024;BME280;42916;54.346;18.562;2023-06-04T04:30:07;101068.03;;;8.92;71.76
57024;BME280;42916;54.346;18.562;2023-06-04T04:32:35;101064.35;;;9.08;71.30
57024;BME280;42916;54.346;18.562;2023-06-04T04:35:05;101067.85;;;9.25;71.06
57024;BME280;42916;54.346;18.562;2023-06-04T04:37:35;101061.94;;;9.42;70.67
57024;BME280;42916;54.346;18.562;2023-06-04T04:40:06;101062.08;;;9.57;70.30
57024;BME280;42916;54.346;18.562;2023-06-04T04:42:35;101058.98;;;9.74;70.02
57024;BME280;42916;54.346;18.562;2023-06-04T04:45:03;101058.29;;;9.91;69.15
57024;BME280;42916;54.346;18.562;2023-06-04T04:47:29;101054.76;;;10.07;68.41
57024;BME280;42916;54.346;18.562;2023-06-04T04:49:56;101048.75;;;10.22;68.43
57024;BME280;42916;54.346;18.562;2023-06-04T04:52:22;101046.37;;;10.37;67.79
57024;BME280;42916;54.346;18.562;2023-06-04T04:54:48;101052.27;;;10.52;67.00
57024;BME280;42916;54.346;18.562;2023-06-04T04:57:14;101046.15;;;10.67;66.66
57024;BME280;42916;54.346;18.562;2023-06-04T04:59:43;101049.82;;;10.81;66.07
57024;BME280;42916;54.346;18.562;2023-06-04T05:02:09;101049.63;;;10.95;65.34
57024;BME280;42916;54.346;18.562;2023-06-04T05:04:35;101049.52;;;11.10;65.01
57024;BME280;42916;54.346;18.562;2023-06-04T05:07:02;101049.24;;;11.24;63.18
57024;BME280;42916;54.346;18.562;2023-06-04T05:09:29;101050.23;;;11.38;63.45
57024;BME280;42916;54.346;18.562;2023-06-04T05:11:55;101056.14;;;11.53;63.14
57024;BME280;42916;54.346;18.562;2023-06-04T05:14:21;101051.98;;;11.67;61.23
57024;BME280;42916;54.346;18.562;2023-06-04T05:16:48;101052.83;;;11.82;61.44
57024;BME280;42916;54.346;18.562;2023-06-04T05:19:16;101051.45;;;11.96;61.50
57024;BME280;42916;54.346;18.562;2023-06-04T05:21:43;101050.60;;;12.09;60.49
57024;BME280;42916;54.346;18.562;2023-06-04T05:24:10;101051.19;;;12.22;60.21
57024;BME280;42916;54.346;18.562;2023-06-04T05:26:37;101051.59;;;12.35;59.40
57024;BME280;42916;54.346;18.562;2023-06-04T05:29:09;101051.73;;;12.49;58.92
57024;BME280;42916;54.346;18.562;2023-06-04T05:31:37;101048.14;;;12.63;58.88
57024;BME280;42916;54.346;18.562;2023-06-04T05:34:06;101046.00;;;12.74;57.29
57024;BME280;42916;54.346;18.562;2023-06-04T05:36:33;101054.13;;;12.83;56.63
57024;BME280;42916;54.346;18.562;2023-06-04T05:39:01;101048.20;;;12.94;57.19
57024;BME280;42916;54.346;18.562;2023-06-04T05:41:33;101047.34;;;13.04;56.62
57024;BME280;42916;54.346;18.562;2023-06-04T05:44:00;101049.21;;;13.16;56.66
57024;BME280;42916;54.346;18.562;2023-06-04T05:46:27;101050.09;;;13.27;55.77
57024;BME280;42916;54.346;18.562;2023-06-04T05:48:53;101050.30;;;13.38;55.45
57024;BME280;42916;54.346;18.562;2023-06-04T05:51:20;101048.70;;;13.49;55.12
57024;BME280;42916;54.346;18.562;2023-06-04T05:53:47;101054.94;;;13.60;53.61
57024;BME280;42916;54.346;18.562;2023-06-04T05:56:13;101055.23;;;13.69;53.22
57024;BME280;42916;54.346;18.562;2023-06-04T05:58:39;101053.34;;;13.78;53.05
57024;BME280;42916;54.346;18.562;2023-06-04T06:01:06;101054.50;;;13.86;51.80
57024;BME280;42916;54.346;18.562;2023-06-04T06:03:33;101057.31;;;13.96;51.78
57024;BME280;42916;54.346;18.562;2023-06-04T06:05:59;101058.26;;;14.06;50.88
57024;BME280;42916;54.346;18.562;2023-06-04T06:08:27;101056.79;;;14.14;50.65
57024;BME280;42916;54.346;18.562;2023-06-04T06:10:53;101065.98;;;14.23;50.83
57024;BME280;42916;54.346;18.562;2023-06-04T06:13:20;101059.90;;;14.32;50.01
57024;BME280;42916;54.346;18.562;2023-06-04T06:15:46;101061.12;;;14.42;50.55
57024;BME280;42916;54.346;18.562;2023-06-04T06:18:14;101065.28;;;14.52;49.76
57024;BME280;42916;54.346;18.562;2023-06-04T06:20:41;101065.62;;;14.58;49.04
57024;BME280;42916;54.346;18.562;2023-06-04T06:23:07;101064.46;;;14.66;48.57
57024;BME280;42916;54.346;18.562;2023-06-04T06:25:36;101065.21;;;14.75;48.31
57024;BME280;42916;54.346;18.562;2023-06-04T06:28:07;101069.64;;;14.84;48.48
57024;BME280;42916;54.346;18.562;2023-06-04T06:30:34;101061.67;;;14.93;47.97
57024;BME280;42916;54.346;18.562;2023-06-04T06:33:00;101064.44;;;15.01;47.21
57024;BME280;42916;54.346;18.562;2023-06-04T06:35:26;101062.66;;;15.07;47.50
57024;BME280;42916;54.346;18.562;2023-06-04T06:37:52;101060.65;;;15.16;46.86
57024;BME280;42916;54.346;18.562;2023-06-04T06:40:19;101064.84;;;15.26;45.82
57024;BME280;42916;54.346;18.562;2023-06-04T06:42:51;101066.05;;;15.32;44.87
57024;BME280;42916;54.346;18.562;2023-06-04T06:45:18;101068.21;;;15.36;44.96
57024;BME280;42916;54.346;18.562;2023-06-04T06:47:45;101065.74;;;15.41;45.38
57024;BME280;42916;54.346;18.562;2023-06-04T06:50:11;101070.38;;;15.50;45.35
57024;BME280;42916;54.346;18.562;2023-06-04T06:52:38;101070.16;;;15.59;44.87
57024;BME280;42916;54.346;18.562;2023-06-04T06:55:04;101068.04;;;15.64;43.97
57024;BME280;42916;54.346;18.562;2023-06-04T06:57:31;101070.51;;;15.68;42.79
57024;BME280;42916;54.346;18.562;2023-06-04T06:59:57;101071.88;;;15.71;43.53
57024;BME280;42916;54.346;18.562;2023-06-04T07:02:23;101069.11;;;15.75;42.82
57024;BME280;42916;54.346;18.562;2023-06-04T07:04:49;101067.46;;;15.78;43.50
57024;BME280;42916;54.346;18.562;2023-06-04T07:07:15;101067.64;;;15.87;43.63
57024;BME280;42916;54.346;18.562;2023-06-04T07:09:42;101070.10;;;15.93;43.06
57024;BME280;42916;54.346;18.562;2023-06-04T07:12:08;101069.61;;;15.92;41.21
57024;BME280;42916;54.346;18.562;2023-06-04T07:14:34;101066.10;;;15.95;42.79
57024;BME280;42916;54.346;18.562;2023-06-04T07:17:00;101065.55;;;16.04;42.79
57024;BME280;42916;54.346;18.562;2023-06-04T07:19:27;101069.33;;;16.14;43.28
57024;BME280;42916;54.346;18.562;2023-06-04T07:21:54;101071.89;;;16.23;42.82
57024;BME280;42916;54.346;18.562;2023-06-04T07:24:20;101071.11;;;16.29;42.65
57024;BME280;42916;54.346;18.562;2023-06-04T07:26:47;101071.25;;;16.39;42.82
57024;BME280;42916;54.346;18.562;2023-06-04T07:29:13;101072.61;;;16.46;42.18
57024;BME280;42916;54.346;18.562;2023-06-04T07:31:40;101073.31;;;16.51;42.11
57024;BME280;42916;54.346;18.562;2023-06-04T07:34:07;101080.77;;;16.59;41.83
57024;BME280;42916;54.346;18.562;2023-06-04T07:36:33;101076.31;;;16.62;41.76
57024;BME280;42916;54.346;18.562;2023-06-04T07:38:59;101074.35;;;16.70;42.09
57024;BME280;42916;54.346;18.562;2023-06-04T07:41:26;101075.70;;;16.80;41.66
57024;BME280;42916;54.346;18.562;2023-06-04T07:43:52;101082.61;;;16.82;40.84
57024;BME280;42916;54.346;18.562;2023-06-04T07:46:18;101074.11;;;16.81;41.18
57024;BME280;42916;54.346;18.562;2023-06-04T07:48:45;101079.94;;;16.86;41.04
57024;BME280;42916;54.346;18.562;2023-06-04T07:51:13;101081.29;;;16.90;40.73
57024;BME280;42916;54.346;18.562;2023-06-04T07:53:39;101078.46;;;16.98;40.79
57024;BME280;42916;54.346;18.562;2023-06-04T07:56:06;101079.79;;;17.06;40.65
57024;BME280;42916;54.346;18.562;2023-06-04T07:58:32;101078.98;;;17.15;40.56
57024;BME280;42916;54.346;18.562;2023-06-04T08:00:58;101076.02;;;17.24;40.27
57024;BME280;42916;54.346;18.562;2023-06-04T08:03:24;101076.67;;;17.25;39.70
57024;BME280;42916;54.346;18.562;2023-06-04T08:05:50;101075.21;;;17.20;39.53
57024;BME280;42916;54.346;18.562;2023-06-04T08:08:16;101075.21;;;17.20;39.42
57024;BME280;42916;54.346;18.562;2023-06-04T08:10:42;101078.69;;;17.18;38.88
57024;BME280;42916;54.346;18.562;2023-06-04T08:13:08;101078.36;;;17.19;39.25
57024;BME280;42916;54.346;18.562;2023-06-04T08:15:35;101076.15;;;17.29;39.51
57024;BME280;42916;54.346;18.562;2023-06-04T08:18:01;101078.52;;;17.38;39.16
57024;BME280;42916;54.346;18.562;2023-06-04T08:20:28;101073.97;;;17.43;38.87
57024;BME280;42916;54.346;18.562;2023-06-04T08:22:54;101077.95;;;17.48;38.63
57024;BME280;42916;54.346;18.562;2023-06-04T08:25:20;101078.79;;;17.55;38.58
57024;BME280;42916;54.346;18.562;2023-06-04T08:27:46;101081.48;;;17.65;37.24
57024;BME280;42916;54.346;18.562;2023-06-04T08:30:12;101080.80;;;17.68;37.50
57024;BME280;42916;54.346;18.562;2023-06-04T08:32:38;101080.84;;;17.75;37.29
57024;BME280;42916;54.346;18.562;2023-06-04T08:35:06;101080.86;;;17.81;37.24
57024;BME280;42916;54.346;18.562;2023-06-04T08:37:33;101076.15;;;17.79;35.99
57024;BME280;42916;54.346;18.562;2023-06-04T08:39:59;101080.64;;;17.81;35.69
57024;BME280;42916;54.346;18.562;2023-06-04T08:42:30;101079.77;;;17.78;35.08
57024;BME280;42916;54.346;18.562;2023-06-04T08:44:57;101078.51;;;17.72;35.85
57024;BME280;42916;54.346;18.562;2023-06-04T08:47:29;101077.48;;;17.71;35.89
57024;BME280;42916;54.346;18.562;2023-06-04T08:49:59;101074.88;;;17.70;35.77
57024;BME280;42916;54.346;18.562;2023-06-04T08:52:26;101074.44;;;17.80;36.11
57024;BME280;42916;54.346;18.562;2023-06-04T08:54:54;101081.94;;;17.94;36.30
57024;BME280;42916;54.346;18.562;2023-06-04T08:57:20;101090.67;;;18.03;35.91
57024;BME280;42916;54.346;18.562;2023-06-04T08:59:47;101090.66;;;18.12;35.95
57024;BME280;42916;54.346;18.562;2023-06-04T09:02:14;101084.93;;;18.23;35.87
57024;BME280;42916;54.346;18.562;2023-06-04T09:04:43;101084.00;;;18.34;35.74
57024;BME280;42916;54.346;18.562;2023-06-04T09:07:12;101084.09;;;18.48;35.96
57024;BME280;42916;54.346;18.562;2023-06-04T09:09:40;101086.48;;;18.60;35.52
57024;BME280;42916;54.346;18.562;2023-06-04T09:12:11;101086.13;;;18.62;35.02
57024;BME280;42916;54.346;18.562;2023-06-04T09:14:37;101083.73;;;18.59;34.65
57024;BME280;42916;54.346;18.562;2023-06-04T09:17:04;101085.05;;;18.60;34.57
57024;BME280;42916;54.346;18.562;2023-06-04T09:19:30;101085.95;;;18.63;34.76
57024;BME280;42916;54.346;18.562;2023-06-04T09:21:57;101081.29;;;18.66;34.39
57024;BME280;42916;54.346;18.562;2023-06-04T09:24:38;101082.97;;;18.73;34.99
57024;BME280;42916;54.346;18.562;2023-06-04T09:27:15;101084.80;;;18.89;35.76
57024;BME280;42916;54.346;18.562;2023-06-04T09:32:23;101081.27;;;19.01;36.56
57024;BME280;42916;54.346;18.562;2023-06-04T09:34:49;101078.41;;;18.94;36.68
57024;BME280;42916;54.346;18.562;2023-06-04T09:37:16;101075.89;;;18.88;36.74
57024;BME280;42916;54.346;18.562;2023-06-04T09:39:55;101073.01;;;18.84;36.93
57024;BME280;42916;54.346;18.562;2023-06-04T09:42:22;101074.29;;;18.83;37.00
57024;BME280;42916;54.346;18.562;2023-06-04T09:44:48;101076.25;;;18.85;37.05
57024;BME280;42916;54.346;18.562;2023-06-04T09:47:14;101072.42;;;18.79;36.74
57024;BME280;42916;54.346;18.562;2023-06-04T09:49:45;101070.90;;;18.77;36.92
57024;BME280;42916;54.346;18.562;2023-06-04T09:52:12;101074.42;;;18.84;37.07
57024;BME280;42916;54.346;18.562;2023-06-04T09:54:41;101072.66;;;18.90;37.04
57024;BME280;42916;54.346;18.562;2023-06-04T09:57:18;101073.30;;;19.04;37.05
57024;BME280;42916;54.346;18.562;2023-06-04T09:59:45;101073.81;;;19.24;36.81
57024;BME280;42916;54.346;18.562;2023-06-04T10:02:12;101065.69;;;19.37;36.49
57024;BME280;42916;54.346;18.562;2023-06-04T10:04:41;101068.29;;;19.50;36.54
57024;BME280;42916;54.346;18.562;2023-06-04T10:07:11;101065.63;;;19.69;36.16
57024;BME280;42916;54.346;18.562;2023-06-04T10:09:39;101073.89;;;19.79;35.62
57024;BME280;42916;54.346;18.562;2023-06-04T10:12:14;101075.14;;;19.85;35.47
57024;BME280;42916;54.346;18.562;2023-06-04T10:14:45;101077.77;;;20.01;35.59
57024;BME280;42916;54.346;18.562;2023-06-04T10:17:15;101071.67;;;20.15;35.63
57024;BME280;42916;54.346;18.562;2023-06-04T10:19:43;101075.52;;;20.35;35.43
57024;BME280;42916;54.346;18.562;2023-06-04T10:22:10;101069.31;;;20.45;34.92
57024;BME280;42916;54.346;18.562;2023-06-04T10:24:38;101074.91;;;20.53;34.69
57024;BME280;42916;54.346;18.562;2023-06-04T10:27:06;101069.20;;;20.60;34.29
57024;BME280;42916;54.346;18.562;2023-06-04T10:29:37;101069.11;;;20.50;33.66
57024;BME280;42916;54.346;18.562;2023-06-04T10:32:03;101068.96;;;20.43;33.84
57024;BME280;42916;54.346;18.562;2023-06-04T10:34:30;101073.00;;;20.45;34.03
57024;BME280;42916;54.346;18.562;2023-06-04T10:36:56;101069.80;;;20.60;34.16
57024;BME280;42916;54.346;18.562;2023-06-04T10:39:30;101069.12;;;20.79;34.08
57024;BME280;42916;54.346;18.562;2023-06-04T10:42:04;101071.16;;;20.95;33.18
57024;BME280;42916;54.346;18.562;2023-06-04T10:44:31;101069.35;;;20.89;32.97
57024;BME280;42916;54.346;18.562;2023-06-04T10:46:58;101068.14;;;20.73;32.57
57024;BME280;42916;54.346;18.562;2023-06-04T10:49:28;101073.64;;;20.59;33.02
57024;BME280;42916;54.346;18.562;2023-06-04T10:51:54;101075.82;;;20.64;33.24
57024;BME280;42916;54.346;18.562;2023-06-04T10:54:29;101072.87;;;20.61;32.98
57024;BME280;42916;54.346;18.562;2023-06-04T10:56:55;101080.11;;;20.62;33.51
57024;BME280;42916;54.346;18.562;2023-06-04T10:59:21;101071.39;;;20.64;33.50
57024;BME280;42916;54.346;18.562;2023-06-04T11:01:49;101075.98;;;20.81;33.87
57024;BME280;42916;54.346;18.562;2023-06-04T11:04:23;101075.34;;;21.06;33.98
57024;BME280;42916;54.346;18.562;2023-06-04T11:07:06;101076.91;;;21.16;33.80
57024;BME280;42916;54.346;18.562;2023-06-04T11:09:57;101073.34;;;21.22;34.04
57024;BME280;42916;54.346;18.562;2023-06-04T11:12:22;101078.84;;;21.38;34.12
57024;BME280;42916;54.346;18.562;2023-06-04T11:14:57;101080.95;;;21.55;33.99
57024;BME280;42916;54.346;18.562;2023-06-04T11:17:24;101081.71;;;21.59;33.40
57024;BME280;42916;54.346;18.562;2023-06-04T11:19:50;101076.95;;;21.39;33.34
57024;BME280;42916;54.346;18.562;2023-06-04T11:22:21;101077.97;;;21.40;33.87
57024;BME280;42916;54.346;18.562;2023-06-04T11:24:47;101080.38;;;21.36;33.46
57024;BME280;42916;54.346;18.562;2023-06-04T11:27:14;101077.23;;;21.22;33.86
57024;BME280;42916;54.346;18.562;2023-06-04T11:29:40;101082.77;;;21.46;34.26
57024;BME280;42916;54.346;18.562;2023-06-04T11:32:06;101087.73;;;21.74;33.96
57024;BME280;42916;54.346;18.562;2023-06-04T11:34:32;101087.94;;;21.99;34.00
57024;BME280;42916;54.346;18.562;2023-06-04T11:37:08;101087.11;;;22.08;33.45
57024;BME280;42916;54.346;18.562;2023-06-04T11:39:35;101089.91;;;21.98;32.97
57024;BME280;42916;54.346;18.562;2023-06-04T11:42:05;101095.53;;;21.67;32.90
57024;BME280;42916;54.346;18.562;2023-06-04T11:44:31;101088.84;;;21.67;32.84
57024;BME280;42916;54.346;18.562;2023-06-04T11:46:58;101088.65;;;21.59;32.24
57024;BME280;42916;54.346;18.562;2023-06-04T11:49:24;101087.45;;;21.48;32.35
57024;BME280;42916;54.346;18.562;2023-06-04T11:51:52;101088.02;;;21.27;32.26
57024;BME280;42916;54.346;18.562;2023-06-04T11:54:20;101091.77;;;21.35;32.96
57024;BME280;42916;54.346;18.562;2023-06-04T11:56:51;101090.05;;;21.70;32.23
57024;BME280;42916;54.346;18.562;2023-06-04T11:59:18;101087.88;;;21.84;32.05
57024;BME280;42916;54.346;18.562;2023-06-04T12:01:45;101090.64;;;22.13;32.12
57024;BME280;42916;54.346;18.562;2023-06-04T12:04:19;101085.84;;;22.36;31.37
57024;BME280;42916;54.346;18.562;2023-06-04T12:06:56;101081.33;;;22.43;30.87
57024;BME280;42916;54.346;18.562;2023-06-04T12:09:25;101084.55;;;22.71;31.01
57024;BME280;42916;54.346;18.562;2023-06-04T12:12:01;101082.96;;;23.17;30.94
57024;BME280;42916;54.346;18.562;2023-06-04T12:14:27;101086.19;;;23.28;29.82
57024;BME280;42916;54.346;18.562;2023-06-04T12:17:14;101083.91;;;23.15;29.61
57024;BME280;42916;54.346;18.562;2023-06-04T12:19:47;101088.91;;;22.97;29.38
57024;BME280;42916;54.346;18.562;2023-06-04T12:22:14;101084.41;;;23.03;29.37
57024;BME280;42916;54.346;18.562;2023-06-04T12:24:53;101093.58;;;23.37;29.80
57024;BME280;42916;54.346;18.562;2023-06-04T12:27:24;101089.86;;;23.96;29.42
57024;BME280;42916;54.346;18.562;2023-06-04T12:30:04;101096.34;;;24.21;28.77
57024;BME280;42916;54.346;18.562;2023-06-04T12:32:36;101094.79;;;23.98;28.00
57024;BME280;42916;54.346;18.562;2023-06-04T12:35:03;101097.70;;;23.63;28.10
57024;BME280;42916;54.346;18.562;2023-06-04T12:37:29;101095.58;;;23.51;28.42
57024;BME280;42916;54.346;18.562;2023-06-04T12:39:55;101097.37;;;23.50;28.19
57024;BME280;42916;54.346;18.562;2023-06-04T12:42:21;101099.42;;;23.34;28.23
57024;BME280;42916;54.346;18.562;2023-06-04T12:44:48;101097.85;;;23.40;28.35
57024;BME280;42916;54.346;18.562;2023-06-04T12:47:14;101097.80;;;23.51;28.29
57024;BME280;42916;54.346;18.562;2023-06-04T12:49:43;101095.17;;;23.70;27.96